createdAt,value
2023-05-23T00:00:14.267Z,15.84
2023-05-23T00:03:02.728Z,15.73
2023-05-23T00:09:08.949Z,15.69
2023-05-23T00:15:13.502Z,15.31
2023-05-23T00:18:00.374Z,15.24
2023-05-23T00:20:46.985Z,15.15
2023-05-23T00:23:33.867Z,15.04
2023-05-23T00:26:29.911Z,14.89
2023-05-23T00:29:22.478Z,14.80
2023-05-23T00:32:17.069Z,14.63
2023-05-23T00:35:10.407Z,14.62
2023-05-23T00:38:03.330Z,14.44
2023-05-23T00:40:55.856Z,14.43
2023-05-23T00:43:48.659Z,14.34
2023-05-23T00:46:42.680Z,14.31
2023-05-23T00:49:37.266Z,14.48
2023-05-23T00:52:29.323Z,14.64
2023-05-23T00:55:21.681Z,14.76
2023-05-23T00:58:15.207Z,14.97
2023-05-23T01:01:09.483Z,15.19
2023-05-23T01:04:04.336Z,15.43
2023-05-23T01:10:10.208Z,15.71
2023-05-23T01:16:34.224Z,15.93
2023-05-23T01:19:44.633Z,16.04
2023-05-23T01:22:45.823Z,16.10
2023-05-23T01:29:10.202Z,16.20
2023-05-23T01:32:03.707Z,16.20
2023-05-23T01:34:56.761Z,16.33
2023-05-23T01:37:49.710Z,16.19
2023-05-23T01:40:42.354Z,16.26
2023-05-23T01:46:53.170Z,15.95
2023-05-23T01:49:46.254Z,15.87
2023-05-23T01:52:34.940Z,15.66
2023-05-23T01:55:27.828Z,15.69
2023-05-23T01:58:21.124Z,15.85
2023-05-23T02:01:13.770Z,15.93
2023-05-23T02:04:01.589Z,15.84
2023-05-23T02:06:54.535Z,15.84
2023-05-23T02:09:47.505Z,15.43
2023-05-23T02:12:40.910Z,15.55
2023-05-23T02:18:46.903Z,15.21
2023-05-23T02:21:41.187Z,15.13
2023-05-23T02:27:49.988Z,15.13
2023-05-23T02:33:58.986Z,14.95
2023-05-23T02:36:52.966Z,14.90
2023-05-23T02:39:45.799Z,15.18
2023-05-23T02:42:39.728Z,15.18
2023-05-23T02:45:32.420Z,15.29
2023-05-23T02:48:41.663Z,15.45
2023-05-23T02:51:32.660Z,15.52
2023-05-23T02:58:13.082Z,15.45
2023-05-23T03:01:34.009Z,15.45
2023-05-23T03:04:27.604Z,15.52
2023-05-23T03:10:32.959Z,15.46
2023-05-23T03:13:26.669Z,15.45
2023-05-23T03:16:19.478Z,15.50
2023-05-23T03:19:11.719Z,15.55
2023-05-23T03:22:04.614Z,15.47
2023-05-23T03:24:57.732Z,15.54
2023-05-23T03:31:13.093Z,15.57
2023-05-23T03:34:06.200Z,15.69
2023-05-23T03:36:58.816Z,15.54
2023-05-23T03:39:52.340Z,15.67
2023-05-23T03:42:44.461Z,15.66
2023-05-23T03:45:37.378Z,15.49
2023-05-23T03:48:38.836Z,15.39
2023-05-23T03:51:32.679Z,15.54
2023-05-23T03:54:25.793Z,15.41
2023-05-23T03:57:18.835Z,15.46
2023-05-23T04:03:26.088Z,15.18
2023-05-23T04:06:22.705Z,15.30
2023-05-23T04:09:15.564Z,15.26
2023-05-23T04:12:11.864Z,15.37
2023-05-23T04:15:05.072Z,15.31
2023-05-23T04:21:12.174Z,15.56
2023-05-23T04:27:17.338Z,15.06
2023-05-23T04:30:12.164Z,15.21
2023-05-23T04:33:13.992Z,15.15
2023-05-23T04:36:09.132Z,15.28
2023-05-23T04:39:05.084Z,15.50
2023-05-23T04:42:29.198Z,15.67
2023-05-23T04:45:28.532Z,15.56
2023-05-23T04:48:27.985Z,15.74
2023-05-23T04:51:22.537Z,15.87
2023-05-23T04:54:20.907Z,15.94
2023-05-23T04:57:13.836Z,15.85
2023-05-23T05:00:10.321Z,15.68
2023-05-23T05:03:03.683Z,15.56
2023-05-23T05:09:12.996Z,15.61
2023-05-23T05:15:21.350Z,15.72
2023-05-23T05:18:18.786Z,15.75
2023-05-23T05:21:12.781Z,15.65
2023-05-23T05:24:09.524Z,15.65
2023-05-23T05:27:02.694Z,15.72
2023-05-23T05:29:58.327Z,15.45
2023-05-23T05:32:52.883Z,15.51
2023-05-23T05:35:45.908Z,15.47
2023-05-23T05:38:56.079Z,15.68
2023-05-23T05:41:45.903Z,15.96
2023-05-23T05:48:02.159Z,15.95
2023-05-23T05:54:02.520Z,15.90
2023-05-23T06:00:15.130Z,15.85
2023-05-23T06:03:21.377Z,15.95
2023-05-23T06:06:19.968Z,15.67
2023-05-23T06:09:13.658Z,15.94
2023-05-23T06:12:07.495Z,16.23
2023-05-23T06:14:59.586Z,15.93
2023-05-23T06:17:52.907Z,15.92
2023-05-23T06:24:00.330Z,16.11
2023-05-23T06:26:52.626Z,16.01
2023-05-23T06:29:45.870Z,15.89
2023-05-23T06:32:38.940Z,15.97
2023-05-23T06:35:32.104Z,15.84
2023-05-23T06:38:27.790Z,15.35
2023-05-23T06:41:22.569Z,15.60
2023-05-23T06:44:17.941Z,15.63
2023-05-23T06:47:10.325Z,15.54
2023-05-23T06:50:03.825Z,15.37
2023-05-23T06:52:58.553Z,15.32
2023-05-23T06:59:28.848Z,15.20
2023-05-23T07:02:58.949Z,15.09
2023-05-23T07:05:52.198Z,15.00
2023-05-23T07:09:03.726Z,15.03
2023-05-23T07:11:54.361Z,14.67
2023-05-23T07:18:36.887Z,14.75
2023-05-23T07:21:43.833Z,14.68
2023-05-23T07:24:38.738Z,14.62
2023-05-23T07:27:32.788Z,14.80
2023-05-23T07:30:21.336Z,14.45
2023-05-23T07:33:14.365Z,14.56
2023-05-23T07:36:10.052Z,14.80
2023-05-23T07:39:02.619Z,14.67
2023-05-23T07:41:55.316Z,14.41
2023-05-23T07:44:48.463Z,14.41
2023-05-23T07:47:42.444Z,14.29
2023-05-23T07:50:35.743Z,14.37
2023-05-23T07:53:29.859Z,14.14
2023-05-23T07:56:24.034Z,14.12
2023-05-23T07:59:16.714Z,14.15
2023-05-23T08:02:10.826Z,14.17
2023-05-23T08:08:25.543Z,14.23
2023-05-23T08:14:50.607Z,13.87
2023-05-23T08:17:49.868Z,13.87
2023-05-23T08:24:05.048Z,14.27
2023-05-23T08:26:58.675Z,13.96
2023-05-23T08:33:07.154Z,14.29
2023-05-23T08:39:14.238Z,14.41
2023-05-23T08:42:14.542Z,14.32
2023-05-23T08:45:08.825Z,14.44
2023-05-23T08:48:02.638Z,14.47
2023-05-23T08:50:59.403Z,13.97
2023-05-23T08:53:53.581Z,13.93
2023-05-23T08:56:49.087Z,14.11
2023-05-23T08:59:42.223Z,14.43
2023-05-23T09:02:34.733Z,14.38
2023-05-23T09:05:39.948Z,14.30
2023-05-23T09:08:35.000Z,14.42
2023-05-23T09:11:24.188Z,14.44
2023-05-23T09:14:17.981Z,14.49
2023-05-23T09:17:11.480Z,14.79
2023-05-23T09:23:23.700Z,14.78
2023-05-23T09:26:17.889Z,14.96
2023-05-23T09:29:10.764Z,14.83
2023-05-23T09:35:16.487Z,14.70
2023-05-23T09:41:26.523Z,14.49
2023-05-23T09:44:24.440Z,14.43
2023-05-23T09:47:17.186Z,14.44
2023-05-23T09:50:10.184Z,14.13
2023-05-23T09:53:02.631Z,14.33
2023-05-23T09:55:57.129Z,14.02
2023-05-23T09:58:51.816Z,14.32
2023-05-23T10:01:46.046Z,14.24
2023-05-23T10:04:41.212Z,14.81
2023-05-23T10:07:34.328Z,14.65
2023-05-23T10:13:42.093Z,14.04
2023-05-23T10:16:40.078Z,13.94
2023-05-23T10:19:38.516Z,14.29
2023-05-23T10:25:43.107Z,14.36
2023-05-23T10:28:35.962Z,14.36
2023-05-23T10:31:22.386Z,14.30
2023-05-23T10:34:16.559Z,14.90
2023-05-23T10:37:04.514Z,14.54
2023-05-23T10:39:58.553Z,14.50
2023-05-23T10:42:50.907Z,14.59
2023-05-23T10:45:43.187Z,14.46
2023-05-23T10:52:09.006Z,14.22
2023-05-23T10:58:13.619Z,14.49
2023-05-23T11:01:02.129Z,14.32
2023-05-23T11:07:33.373Z,14.16
2023-05-23T11:10:25.576Z,14.63
2023-05-23T11:13:21.356Z,15.04
2023-05-23T11:16:26.521Z,16.02
2023-05-23T11:19:27.841Z,16.37
2023-05-23T11:22:21.402Z,17.07
2023-05-23T11:25:16.728Z,17.62
2023-05-23T11:28:10.064Z,17.69
2023-05-23T11:31:02.748Z,17.91
2023-05-23T11:34:11.803Z,17.81
2023-05-23T11:37:02.639Z,17.99
2023-05-23T11:43:22.008Z,18.22
2023-05-23T11:49:19.574Z,18.07
2023-05-23T11:55:30.773Z,19.33
2023-05-23T11:58:27.695Z,19.02
2023-05-23T12:01:21.182Z,18.74
2023-05-23T12:04:13.947Z,18.27
2023-05-23T12:07:08.160Z,18.43
2023-05-23T12:10:00.551Z,17.42
2023-05-23T12:12:54.068Z,17.18
2023-05-23T12:16:23.992Z,17.31
2023-05-23T12:19:18.854Z,17.70
2023-05-23T12:22:11.888Z,17.38
2023-05-23T12:28:16.214Z,18.19
2023-05-23T12:34:13.851Z,18.38
2023-05-23T12:40:21.072Z,18.69
2023-05-23T12:46:27.842Z,18.86
2023-05-23T12:49:21.739Z,19.33
2023-05-23T12:52:14.775Z,19.86
2023-05-23T12:55:08.634Z,20.23
2023-05-23T13:01:19.511Z,20.59
2023-05-23T13:07:25.139Z,21.09
2023-05-23T13:10:17.703Z,21.07
2023-05-23T13:13:10.940Z,20.39
2023-05-23T13:16:03.678Z,19.96
2023-05-23T13:18:58.362Z,20.08
2023-05-23T13:21:51.580Z,20.38
2023-05-23T13:24:45.024Z,20.87
2023-05-23T13:27:39.588Z,21.18
2023-05-23T13:30:32.763Z,21.68
2023-05-23T13:33:25.883Z,21.23
2023-05-23T13:36:20.303Z,20.84
2023-05-23T13:39:13.062Z,20.48
2023-05-23T13:42:07.772Z,21.06
2023-05-23T13:45:00.892Z,21.36
2023-05-23T13:47:53.864Z,20.69
2023-05-23T13:50:47.489Z,21.06
2023-05-23T13:53:41.171Z,20.64
2023-05-23T13:56:34.414Z,21.47
2023-05-23T13:59:40.769Z,21.89
2023-05-23T14:02:33.716Z,23.15
2023-05-23T14:08:49.249Z,21.21
2023-05-23T14:11:41.673Z,20.88
2023-05-23T14:14:34.834Z,20.29
2023-05-23T14:17:27.773Z,19.20
2023-05-23T14:20:45.972Z,18.96
2023-05-23T14:23:38.489Z,19.44
2023-05-23T14:26:31.777Z,19.57
2023-05-23T14:29:48.872Z,18.73
2023-05-23T14:32:38.973Z,19.21
2023-05-23T14:35:31.676Z,18.90
2023-05-23T14:38:25.025Z,19.63
2023-05-23T14:41:18.596Z,19.76
2023-05-23T14:44:13.155Z,19.75
2023-05-23T14:47:06.099Z,19.52
2023-05-23T14:49:58.726Z,19.69
2023-05-23T14:52:51.655Z,19.52
2023-05-23T14:55:44.903Z,19.60
2023-05-23T14:58:40.114Z,19.45
2023-05-23T15:01:34.371Z,19.08
2023-05-23T15:04:27.784Z,18.79
2023-05-23T15:07:20.581Z,18.47
2023-05-23T15:10:13.967Z,18.39
2023-05-23T15:13:06.756Z,17.80
2023-05-23T15:15:59.523Z,18.14
2023-05-23T15:18:53.131Z,17.72
2023-05-23T15:21:51.120Z,17.89
2023-05-23T15:24:44.917Z,17.73
2023-05-23T15:27:38.219Z,17.61
2023-05-23T15:30:30.761Z,17.42
2023-05-23T15:33:24.187Z,17.69
2023-05-23T15:39:30.435Z,18.18
2023-05-23T15:45:39.116Z,18.57
2023-05-23T15:51:48.800Z,19.43
2023-05-23T15:54:42.979Z,20.13
2023-05-23T15:57:32.044Z,20.16
2023-05-23T16:00:25.127Z,20.35
2023-05-23T16:03:17.917Z,20.03
2023-05-23T16:06:10.984Z,19.00
2023-05-23T16:09:04.289Z,18.07
2023-05-23T16:11:58.100Z,18.85
2023-05-23T16:18:26.773Z,19.39
2023-05-23T16:21:37.111Z,19.64
2023-05-23T16:24:28.076Z,19.15
2023-05-23T16:31:08.062Z,18.44
2023-05-23T16:34:16.156Z,18.52
2023-05-23T16:37:07.868Z,18.57
2023-05-23T16:43:47.002Z,18.29
2023-05-23T16:46:57.111Z,18.32
2023-05-23T16:49:48.460Z,18.07
2023-05-23T16:56:01.936Z,17.50
2023-05-23T17:02:01.679Z,16.68
2023-05-23T17:08:12.422Z,16.30
2023-05-23T17:14:17.394Z,15.80
2023-05-23T17:17:09.617Z,15.89
2023-05-23T17:19:56.284Z,15.87
2023-05-23T17:22:49.164Z,15.92
2023-05-23T17:25:43.667Z,15.58
2023-05-23T17:28:36.777Z,15.38
2023-05-23T17:31:30.804Z,15.61
2023-05-23T17:34:24.121Z,15.56
2023-05-23T17:40:47.192Z,15.69
2023-05-23T17:44:17.024Z,15.37
2023-05-23T17:47:09.520Z,15.38
2023-05-23T17:50:19.107Z,15.28
2023-05-23T17:53:09.096Z,15.58
2023-05-23T17:59:28.426Z,15.41
2023-05-23T18:05:29.592Z,15.15
2023-05-23T18:11:38.429Z,15.10
2023-05-23T18:17:44.671Z,15.15
2023-05-23T18:20:37.788Z,14.86
2023-05-23T18:23:30.664Z,14.54
2023-05-23T18:26:23.817Z,14.20
2023-05-23T18:29:16.910Z,13.99
2023-05-23T18:32:11.848Z,13.78
2023-05-23T18:35:06.712Z,13.83
2023-05-23T18:38:00.030Z,13.58
2023-05-23T18:40:53.132Z,13.46
2023-05-23T18:43:39.866Z,13.41
2023-05-23T18:46:32.855Z,13.44
2023-05-23T18:49:26.266Z,13.16
2023-05-23T18:52:20.061Z,13.09
2023-05-23T18:55:12.904Z,12.76
2023-05-23T18:58:08.532Z,12.70
2023-05-23T19:01:03.522Z,12.62
2023-05-23T19:03:56.906Z,12.74
2023-05-23T19:06:51.204Z,12.54
2023-05-23T19:09:46.095Z,12.40
2023-05-23T19:12:39.730Z,12.20
2023-05-23T19:15:32.870Z,12.23
2023-05-23T19:21:46.696Z,11.77
2023-05-23T19:28:06.044Z,11.35
2023-05-23T19:30:58.635Z,11.27
2023-05-23T19:33:52.072Z,11.05
2023-05-23T19:36:44.717Z,11.05
2023-05-23T19:42:54.300Z,10.92
2023-05-23T19:45:48.337Z,10.88
2023-05-23T19:48:40.683Z,10.80
2023-05-23T19:51:35.738Z,10.66
2023-05-23T19:54:29.974Z,10.76
2023-05-23T19:57:23.007Z,10.58
2023-05-23T20:03:35.165Z,10.38
2023-05-23T20:09:40.082Z,10.31
2023-05-23T20:12:32.949Z,10.15
2023-05-23T20:15:39.957Z,10.17
2023-05-23T20:18:34.929Z,10.27
2023-05-23T20:21:27.891Z,10.13
2023-05-23T20:24:20.983Z,10.14
2023-05-23T20:27:13.666Z,10.10
2023-05-23T20:30:08.058Z,9.90
2023-05-23T20:33:00.991Z,9.92
2023-05-23T20:36:06.847Z,9.91
2023-05-23T20:39:00.142Z,9.74
2023-05-23T20:41:53.584Z,9.73
2023-05-23T20:47:53.749Z,9.61
2023-05-23T20:50:47.509Z,9.42
2023-05-23T20:53:41.556Z,9.37
2023-05-23T20:57:11.017Z,9.43
2023-05-23T21:00:09.530Z,9.27
2023-05-23T21:03:18.874Z,9.30
2023-05-23T21:06:09.423Z,9.23
2023-05-23T21:09:02.974Z,9.14
2023-05-23T21:11:57.316Z,9.24
2023-05-23T21:14:57.374Z,9.22
2023-05-23T21:17:51.083Z,9.20
2023-05-23T21:21:01.126Z,9.11
2023-05-23T21:23:50.769Z,8.99
2023-05-23T21:26:45.419Z,8.88
2023-05-23T21:29:38.018Z,8.84
2023-05-23T21:32:30.667Z,8.73
2023-05-23T21:35:23.892Z,8.71
2023-05-23T21:38:16.936Z,8.59
2023-05-23T21:41:09.728Z,8.60
2023-05-23T21:44:09.288Z,8.63
2023-05-23T21:47:02.065Z,8.63
2023-05-23T21:49:54.857Z,8.52
2023-05-23T21:52:48.006Z,8.49
2023-05-23T21:55:40.931Z,8.53
2023-05-23T21:58:33.973Z,8.51
2023-05-23T22:01:28.070Z,8.43
2023-05-23T22:04:58.011Z,8.39
2023-05-23T22:07:50.468Z,8.24
2023-05-23T22:10:44.031Z,8.26
2023-05-23T22:13:36.831Z,8.28
2023-05-23T22:16:32.866Z,8.22
2023-05-23T22:19:26.046Z,8.14
2023-05-23T22:22:18.744Z,8.10
2023-05-23T22:25:11.611Z,8.04
2023-05-23T22:28:03.404Z,7.82
2023-05-23T22:30:56.381Z,7.76
2023-05-23T22:33:50.173Z,7.73
2023-05-23T22:36:42.888Z,7.70
2023-05-23T22:39:35.664Z,7.66
2023-05-23T22:45:45.132Z,7.56
2023-05-23T22:48:38.999Z,7.54
2023-05-23T22:51:34.311Z,7.54
2023-05-23T22:54:26.711Z,7.50
2023-05-23T22:57:20.081Z,7.44
2023-05-23T23:00:13.981Z,7.31
2023-05-23T23:06:23.086Z,7.37
2023-05-23T23:12:25.122Z,7.33
2023-05-23T23:15:18.120Z,7.32
2023-05-23T23:21:28.150Z,7.21
2023-05-23T23:27:38.529Z,7.09
2023-05-23T23:30:30.488Z,7.08
2023-05-23T23:33:22.929Z,7.08
2023-05-23T23:36:09.781Z,6.99
2023-05-23T23:38:55.881Z,6.90
2023-05-23T23:41:41.850Z,6.81
2023-05-23T23:44:29.525Z,6.76
2023-05-23T23:47:15.816Z,6.68
2023-05-23T23:50:06.686Z,6.64
2023-05-23T23:52:53.215Z,6.64
2023-05-23T23:55:39.023Z,6.66
2023-05-23T23:58:25.072Z,6.61
